Time;durP1;ratioP1;P1;durP2;ratioP2;P2;SDS_P1;SDS_P2;PMS_P1;PMS_P2;Temp;Humidity;BMP_temperature;BMP_pressure;BME280_temperature;BME280_humidity;BME280_pressure;Samples;Min_cycle;Max_cycle;Signal;HPM_P1;HPM_P2
2023/03/12 00:01:25;;;;;;;8.17;4.60;;;-0.40;99.90;;;;;;5013077;28;20041;-81
2023/03/12 00:03:52;;;;;;;7.13;4.40;;;-0.40;99.90;;;;;;5065238;28;20126;-81
2023/03/12 00:06:20;;;;;;;6.63;4.90;;;-0.50;99.90;;;;;;5063657;28;20049;-81
2023/03/12 00:08:47;;;;;;;8.77;4.93;;;-0.40;99.90;;;;;;5058950;28;20043;-81
2023/03/12 00:11:15;;;;;;;7.80;4.80;;;-0.40;99.90;;;;;;5041421;28;20049;-81
2023/03/12 00:13:41;;;;;;;5.20;4.70;;;-0.40;99.90;;;;;;5063012;28;20037;-80
2023/03/12 00:16:13;;;;;;;5.53;4.63;;;-0.40;99.90;;;;;;5058384;28;20052;-80
2023/03/12 00:18:39;;;;;;;5.85;4.82;;;-0.40;99.90;;;;;;5041423;28;20049;-81
2023/03/12 00:21:05;;;;;;;4.80;4.30;;;-0.50;99.90;;;;;;5043921;28;20528;-81
2023/03/12 00:23:31;;;;;;;5.77;4.40;;;-0.50;99.90;;;;;;5061116;28;20052;-80
2023/03/12 00:26:03;;;;;;;5.37;4.87;;;-0.60;99.90;;;;;;5060204;28;20040;-80
2023/03/12 00:28:29;;;;;;;;;;;-0.60;99.90;;;;;;5057089;28;20041;-80
2023/03/12 00:30:57;;;;;;;6.63;4.80;;;-0.60;99.90;;;;;;5042258;28;19965;-80
2023/03/12 00:33:24;;;;;;;6.63;5.17;;;-0.70;99.90;;;;;;5039030;28;20495;-80
2023/03/12 00:35:50;;;;;;;8.00;5.07;;;-0.60;99.90;;;;;;5042415;28;20028;-81
2023/03/12 00:38:16;;;;;;;7.87;5.13;;;-0.60;99.90;;;;;;5039595;28;20037;-81
2023/03/12 00:40:41;;;;;;;10.27;6.37;;;-0.60;99.90;;;;;;5036688;28;20135;-81
2023/03/12 00:43:07;;;;;;;9.13;5.03;;;-0.60;99.90;;;;;;5043613;28;20102;-81
2023/03/12 00:45:33;;;;;;;8.53;5.67;;;-0.60;99.90;;;;;;5038352;28;20446;-81
2023/03/12 00:47:58;;;;;;;8.30;5.40;;;-0.60;99.90;;;;;;5041763;28;20036;-81
2023/03/12 00:50:24;;;;;;;9.13;5.47;;;-0.60;99.90;;;;;;5046574;28;20404;-81
2023/03/12 00:52:50;;;;;;;7.63;5.77;;;-0.60;99.90;;;;;;5039843;28;20048;-81
2023/03/12 00:55:16;;;;;;;7.73;5.73;;;-0.60;99.90;;;;;;5026783;28;20090;-81
2023/03/12 00:57:42;;;;;;;7.60;6.37;;;-0.60;99.90;;;;;;5022969;28;20541;-81
2023/03/12 01:00:09;;;;;;;8.73;5.97;;;-0.70;99.90;;;;;;5050334;28;20040;-81
2023/03/12 01:02:36;;;;;;;8.53;5.63;;;-0.70;99.90;;;;;;5037767;28;20049;-81
2023/03/12 01:05:02;;;;;;;7.23;5.80;;;-0.80;99.90;;;;;;5064257;28;20175;-81
2023/03/12 01:07:28;;;;;;;9.83;5.80;;;-0.80;99.90;;;;;;5038914;28;20067;-81
2023/03/12 01:09:54;;;;;;;6.93;5.33;;;-0.80;99.90;;;;;;5056558;28;20133;-80
2023/03/12 01:12:19;;;;;;;7.57;5.83;;;-0.80;99.90;;;;;;5060297;28;20048;-80
2023/03/12 01:14:45;;;;;;;9.20;6.43;;;-0.80;99.90;;;;;;5054094;28;20052;-80
2023/03/12 01:17:11;;;;;;;7.60;5.87;;;-0.80;99.90;;;;;;5035875;28;20099;-80
2023/03/12 01:19:36;;;;;;;7.43;6.10;;;-0.80;99.90;;;;;;5037258;28;20049;-80
2023/03/12 01:22:03;;;;;;;8.13;5.83;;;-0.80;99.90;;;;;;5061488;28;20082;-81
2023/03/12 01:24:29;;;;;;;7.87;5.80;;;-0.90;99.90;;;;;;5028480;28;20040;-81
2023/03/12 01:26:55;;;;;;;8.23;6.47;;;-0.90;99.90;;;;;;5054818;28;20106;-80
2023/03/12 01:29:21;;;;;;;7.33;6.20;;;-0.90;99.90;;;;;;5057954;28;20080;-81
2023/03/12 01:31:47;;;;;;;8.63;6.50;;;-0.90;99.90;;;;;;5057916;28;20044;-81
2023/03/12 01:34:13;;;;;;;11.80;6.40;;;-0.90;99.90;;;;;;5032887;28;20048;-81
2023/03/12 01:36:39;;;;;;;10.07;6.30;;;-0.80;99.90;;;;;;5042245;28;20408;-81
2023/03/12 01:39:05;;;;;;;9.40;6.47;;;-0.80;99.90;;;;;;5043509;28;20071;-81
2023/03/12 01:41:31;;;;;;;8.13;5.97;;;-0.80;99.90;;;;;;5019064;28;20037;-81
2023/03/12 01:43:58;;;;;;;11.30;7.13;;;-0.90;99.90;;;;;;5064620;28;20037;-80
2023/03/12 01:46:41;;;;;;;11.47;7.27;;;-0.90;99.90;;;;;;5140911;27;1277193;-77
2023/03/12 01:49:28;;;;;;;8.13;6.70;;;-0.90;99.90;;;;;;5163606;27;20474;-77
2023/03/12 01:52:20;;;;;;;10.60;6.50;;;-0.90;99.90;;;;;;5127472;27;20054;-77
2023/03/12 01:54:49;;;;;;;9.77;7.43;;;-0.90;99.90;;;;;;5105058;27;20076;-77
2023/03/12 01:57:22;;;;;;;11.50;6.87;;;-1.00;99.90;;;;;;5143477;27;20182;-77
2023/03/12 01:59:52;;;;;;;8.37;6.23;;;-0.90;99.90;;;;;;5160170;27;20125;-77
2023/03/12 02:02:23;;;;;;;9.30;7.00;;;-0.90;99.90;;;;;;5162526;27;20042;-77
2023/03/12 02:05:02;;;;;;;8.48;6.10;;;-0.80;99.90;;;;;;5138042;27;20053;-77
2023/03/12 02:07:28;;;;;;;8.17;6.07;;;-0.80;99.90;;;;;;5161527;27;20055;-77
2023/03/12 02:09:53;;;;;;;8.03;6.60;;;-0.80;99.90;;;;;;5156100;27;20074;-77
2023/03/12 02:12:19;;;;;;;7.37;5.90;;;-0.70;99.90;;;;;;5163826;27;20095;-77
2023/03/12 02:14:45;;;;;;;13.27;6.57;;;-0.70;99.90;;;;;;5144585;27;20103;-77
2023/03/12 02:17:11;;;;;;;9.13;5.43;;;-0.60;99.90;;;;;;5164446;27;20112;-77
2023/03/12 02:19:51;;;;;;;8.87;6.33;;;-0.50;99.90;;;;;;5145187;27;20043;-77
2023/03/12 02:22:19;;;;;;;10.50;6.17;;;-0.50;99.90;;;;;;5145781;27;20417;-77
2023/03/12 02:25:13;;;;;;;11.47;6.93;;;-0.40;99.90;;;;;;5162215;27;20068;-77
2023/03/12 02:27:40;;;;;;;11.03;6.73;;;-0.30;99.90;;;;;;5141577;27;20078;-77
2023/03/12 02:30:07;;;;;;;11.63;6.93;;;-0.30;99.90;;;;;;5142304;27;20110;-77
2023/03/12 02:32:37;;;;;;;9.80;6.13;;;-0.30;99.90;;;;;;5165847;27;20057;-77
2023/03/12 02:35:05;;;;;;;8.83;6.73;;;-0.20;99.90;;;;;;5142448;27;20035;-77
2023/03/12 02:37:31;;;;;;;11.00;6.50;;;-0.10;99.90;;;;;;5143343;27;20046;-77
2023/03/12 02:40:14;;;;;;;7.73;6.07;;;-0.20;99.90;;;;;;5163625;27;20102;-77
2023/03/12 02:42:40;;;;;;;7.83;6.20;;;-0.20;99.90;;;;;;5164446;27;20083;-77
2023/03/12 02:45:06;;;;;;;10.17;6.80;;;-0.10;99.90;;;;;;5162389;27;20402;-77
2023/03/12 02:47:31;;;;;;;9.50;6.67;;;-0.10;99.90;;;;;;5144094;27;20397;-77
2023/03/12 02:49:57;;;;;;;7.77;6.30;;;-0.10;99.90;;;;;;5144694;27;20107;-77
2023/03/12 02:52:23;;;;;;;9.77;6.57;;;-0.10;99.90;;;;;;5126004;27;20062;-76
2023/03/12 02:54:48;;;;;;;9.00;6.30;;;0.00;99.90;;;;;;5139384;27;20031;-77
2023/03/12 02:57:14;;;;;;;9.57;6.60;;;-0.10;99.90;;;;;;5150343;27;20050;-77
2023/03/12 02:59:40;;;;;;;11.87;6.23;;;0.00;99.90;;;;;;5132294;27;20050;-77
2023/03/12 03:02:06;;;;;;;9.90;6.23;;;0.00;99.90;;;;;;5129475;27;20042;-77
2023/03/12 03:04:33;;;;;;;9.67;5.90;;;0.00;99.90;;;;;;5106465;27;20054;-77
2023/03/12 03:07:00;;;;;;;9.33;6.10;;;0.00;99.90;;;;;;5131658;27;20063;-77
2023/03/12 03:09:25;;;;;;;8.43;5.73;;;0.00;99.90;;;;;;5128571;27;20082;-77
2023/03/12 03:11:51;;;;;;;10.97;6.57;;;0.00;99.90;;;;;;5126836;27;20099;-78
2023/03/12 03:14:18;;;;;;;6.93;5.80;;;0.00;99.90;;;;;;5126833;27;20047;-77
2023/03/12 03:16:44;;;;;;;10.40;5.37;;;0.10;99.90;;;;;;5144898;27;20038;-78
2023/03/12 03:19:10;;;;;;;10.63;5.70;;;0.10;99.90;;;;;;5146718;27;20065;-77
2023/03/12 03:21:36;;;;;;;8.80;5.47;;;0.10;99.90;;;;;;5113267;27;20046;-77
2023/03/12 03:24:02;;;;;;;8.47;5.30;;;0.10;99.90;;;;;;5130759;27;20039;-76
2023/03/12 03:26:27;;;;;;;9.57;5.60;;;0.10;99.90;;;;;;5126246;27;20047;-78
2023/03/12 03:28:54;;;;;;;9.30;5.43;;;0.10;99.90;;;;;;5148451;27;20035;-77
2023/03/12 03:31:20;;;;;;;7.53;5.80;;;0.20;99.90;;;;;;5130155;27;20039;-77
2023/03/12 03:33:47;;;;;;;9.60;5.90;;;0.20;99.90;;;;;;5145801;27;20035;-77
2023/03/12 03:36:13;;;;;;;8.27;5.60;;;0.20;99.90;;;;;;5147836;27;20090;-77
2023/03/12 03:38:40;;;;;;;10.13;5.37;;;0.20;99.90;;;;;;5120319;27;20055;-77
2023/03/12 03:41:06;;;;;;;9.53;5.60;;;0.20;99.90;;;;;;5110890;27;20102;-77
2023/03/12 03:43:32;;;;;;;9.37;6.00;;;0.30;99.90;;;;;;5125553;27;20143;-76
2023/03/12 03:46:02;;;;;;;7.70;6.03;;;0.30;99.90;;;;;;5148729;27;20054;-78
2023/03/12 03:48:28;;;;;;;7.63;5.77;;;0.30;99.90;;;;;;5142109;27;20051;-77
2023/03/12 03:50:53;;;;;;;8.00;5.80;;;0.30;99.90;;;;;;5132224;27;20060;-77
2023/03/12 03:53:20;;;;;;;11.07;5.70;;;0.30;99.90;;;;;;5109617;27;20058;-78
2023/03/12 03:55:46;;;;;;;8.87;5.63;;;0.40;99.90;;;;;;5130574;27;20043;-78
2023/03/12 03:58:12;;;;;;;7.47;5.70;;;0.40;99.90;;;;;;5150126;27;20380;-77
2023/03/12 04:00:38;;;;;;;8.73;5.87;;;0.40;99.90;;;;;;5128591;27;20047;-77
2023/03/12 04:03:04;;;;;;;10.83;5.23;;;0.40;99.90;;;;;;5145569;27;20045;-77
2023/03/12 04:05:30;;;;;;;11.97;5.83;;;0.40;99.90;;;;;;5127658;27;20044;-76
2023/03/12 04:08:01;;;;;;;8.43;5.80;;;0.50;99.90;;;;;;5145054;27;20048;-78
2023/03/12 04:10:28;;;;;;;13.03;6.40;;;0.50;99.90;;;;;;5142630;27;20051;-78
2023/03/12 04:12:54;;;;;;;8.20;5.53;;;0.50;99.90;;;;;;5145503;27;20030;-77
2023/03/12 04:15:20;;;;;;;10.03;6.43;;;0.50;99.90;;;;;;5130663;27;20103;-78
2023/03/12 04:17:45;;;;;;;10.57;6.30;;;0.50;99.90;;;;;;5142145;27;20078;-77
2023/03/12 04:20:11;;;;;;;8.77;6.23;;;0.60;99.90;;;;;;5131178;27;20470;-75
2023/03/12 04:22:37;;;;;;;8.80;6.60;;;0.60;99.90;;;;;;5145493;27;20054;-78
2023/03/12 04:25:03;;;;;;;8.70;5.57;;;0.60;99.90;;;;;;5149676;27;20097;-78
2023/03/12 04:27:29;;;;;;;8.50;6.30;;;0.60;99.90;;;;;;5147745;27;20079;-77
2023/03/12 04:29:55;;;;;;;10.53;6.50;;;0.60;99.90;;;;;;5109509;27;20103;-75
2023/03/12 04:32:20;;;;;;;8.37;6.40;;;0.60;99.90;;;;;;5128368;27;20043;-77
2023/03/12 04:34:46;;;;;;;8.83;6.03;;;0.70;99.90;;;;;;5128780;27;20143;-77
2023/03/12 04:37:15;;;;;;;10.53;7.07;;;0.70;99.90;;;;;;5126942;27;20099;-76
2023/03/12 04:39:42;;;;;;;13.03;6.77;;;0.70;99.90;;;;;;5124072;27;20049;-76
2023/03/12 04:42:08;;;;;;;9.90;6.77;;;0.70;99.90;;;;;;5142557;27;20035;-76
2023/03/12 04:44:34;;;;;;;8.90;6.70;;;0.70;99.90;;;;;;5144885;27;20053;-76
2023/03/12 04:47:00;;;;;;;11.77;7.03;;;0.70;99.90;;;;;;5128391;27;20083;-77
2023/03/12 04:49:26;;;;;;;9.50;7.07;;;0.70;99.90;;;;;;5126253;27;20050;-77
2023/03/12 04:51:52;;;;;;;10.07;7.20;;;0.80;99.90;;;;;;5146055;27;20102;-78
2023/03/12 04:54:19;;;;;;;9.27;7.23;;;0.80;99.90;;;;;;5144241;27;20368;-77
2023/03/12 04:56:46;;;;;;;10.63;6.80;;;0.80;99.90;;;;;;5125873;27;20105;-77
2023/03/12 04:59:12;;;;;;;10.70;7.53;;;0.80;99.90;;;;;;5126872;27;20050;-76
2023/03/12 05:01:39;;;;;;;9.50;7.30;;;0.90;99.90;;;;;;5118537;27;20051;-77
2023/03/12 05:04:06;;;;;;;9.83;7.13;;;0.90;99.90;;;;;;5128202;27;20271;-77
2023/03/12 05:06:32;;;;;;;10.37;7.20;;;0.90;99.90;;;;;;5123630;27;20042;-76
2023/03/12 05:08:58;;;;;;;10.03;6.80;;;0.90;99.90;;;;;;5123008;27;20054;-77
2023/03/12 05:11:24;;;;;;;10.37;7.03;;;0.90;99.90;;;;;;5128636;27;20035;-77
2023/03/12 05:13:50;;;;;;;11.03;6.93;;;1.00;99.90;;;;;;5141060;27;20043;-77
2023/03/12 05:16:16;;;;;;;11.47;6.70;;;1.00;99.90;;;;;;5145229;27;20110;-77
2023/03/12 05:18:43;;;;;;;10.97;6.93;;;1.00;99.90;;;;;;5142595;27;20509;-77
2023/03/12 05:21:16;;;;;;;10.10;6.63;;;1.00;99.90;;;;;;5141718;27;20051;-77
2023/03/12 05:23:42;;;;;;;10.83;6.97;;;1.00;99.90;;;;;;5125587;27;20103;-76
2023/03/12 05:26:23;;;;;;;9.30;7.07;;;1.00;99.90;;;;;;5106035;27;20039;-77
2023/03/12 05:28:49;;;;;;;12.00;7.67;;;1.10;99.90;;;;;;5142145;27;20053;-77
2023/03/12 05:31:15;;;;;;;12.20;7.07;;;1.10;99.90;;;;;;5124383;27;20115;-77
2023/03/12 05:33:41;;;;;;;9.30;6.50;;;1.10;99.90;;;;;;5126277;27;20047;-76
2023/03/12 05:36:08;;;;;;;9.23;6.53;;;1.10;99.90;;;;;;5143484;27;20064;-77
2023/03/12 05:38:34;;;;;;;12.33;7.20;;;1.10;99.90;;;;;;5145735;27;20504;-77
2023/03/12 05:41:00;;;;;;;11.53;7.40;;;1.10;99.90;;;;;;5108139;27;20585;-76
2023/03/12 05:43:26;;;;;;;13.87;7.67;;;1.10;99.90;;;;;;5123433;27;20501;-74
2023/03/12 05:45:56;;;;;;;10.27;7.87;;;1.10;99.90;;;;;;5144803;27;20051;-76
2023/03/12 05:48:22;;;;;;;8.93;7.10;;;1.10;99.90;;;;;;5142940;27;20051;-78
2023/03/12 05:50:48;;;;;;;12.40;7.67;;;1.10;99.90;;;;;;5122674;28;20092;-77
2023/03/12 05:53:13;;;;;;;11.77;8.00;;;1.10;99.90;;;;;;5124120;27;20066;-77
2023/03/12 05:55:40;;;;;;;12.77;8.33;;;1.10;99.90;;;;;;5145721;27;20110;-77
2023/03/12 05:58:06;;;;;;;11.53;8.23;;;1.10;99.90;;;;;;5123523;27;20400;-76
2023/03/12 06:00:37;;;;;;;10.40;7.83;;;1.10;99.90;;;;;;5142920;27;20066;-76
2023/03/12 06:03:04;;;;;;;10.73;8.70;;;1.10;99.90;;;;;;5143341;27;20045;-76
2023/03/12 06:05:31;;;;;;;14.27;8.43;;;1.10;99.90;;;;;;5119939;27;20046;-76
2023/03/12 06:07:57;;;;;;;10.00;8.87;;;1.10;99.90;;;;;;5125180;28;20034;-81
2023/03/12 06:10:22;;;;;;;13.37;8.80;;;1.10;99.90;;;;;;5109293;27;20877;-76
2023/03/12 06:12:48;;;;;;;13.37;9.53;;;1.10;99.90;;;;;;5109248;27;20043;-76
2023/03/12 06:15:13;;;;;;;13.70;8.60;;;1.20;99.90;;;;;;5125029;28;20031;-76
2023/03/12 06:17:39;;;;;;;14.70;9.37;;;1.20;99.90;;;;;;5098388;28;20081;-75
2023/03/12 06:20:06;;;;;;;15.87;9.13;;;1.30;99.90;;;;;;5118811;27;20453;-76
2023/03/12 06:22:31;;;;;;;12.30;9.10;;;1.40;99.90;;;;;;5109597;27;20095;-76
2023/03/12 06:24:57;;;;;;;15.63;8.83;;;1.40;99.90;;;;;;5143287;27;20159;-76
2023/03/12 06:27:23;;;;;;;11.57;8.33;;;1.40;99.90;;;;;;5114368;27;20038;-75
2023/03/12 06:29:50;;;;;;;11.93;7.53;;;1.50;99.90;;;;;;5137080;27;20063;-75
2023/03/12 06:32:17;;;;;;;10.17;8.20;;;1.50;99.90;;;;;;5136868;27;20090;-77
2023/03/12 06:34:43;;;;;;;12.03;8.40;;;1.50;99.90;;;;;;5117764;27;20055;-76
2023/03/12 06:37:10;;;;;;;12.53;8.20;;;1.50;99.90;;;;;;5144085;27;20046;-76
2023/03/12 06:39:37;;;;;;;11.40;7.87;;;1.50;99.90;;;;;;5118585;27;20047;-76
2023/03/12 06:42:03;;;;;;;9.87;8.27;;;1.60;99.90;;;;;;5139270;27;20035;-76
2023/03/12 06:44:29;;;;;;;9.37;8.00;;;1.60;99.90;;;;;;5118906;27;20099;-76
2023/03/12 06:46:55;;;;;;;11.27;8.10;;;1.60;99.90;;;;;;5120123;27;20068;-76
2023/03/12 06:49:21;;;;;;;12.77;8.83;;;1.60;99.90;;;;;;5119939;27;20043;-75
2023/03/12 06:51:47;;;;;;;13.30;8.80;;;1.60;99.90;;;;;;5137639;27;20062;-76
2023/03/12 06:54:13;;;;;;;12.40;9.03;;;1.60;99.90;;;;;;5120701;27;20051;-76
2023/03/12 06:56:39;;;;;;;12.97;8.67;;;1.60;99.90;;;;;;5136687;27;20031;-76
2023/03/12 06:59:04;;;;;;;13.77;8.70;;;1.60;99.90;;;;;;5139363;27;20102;-76
2023/03/12 07:01:30;;;;;;;14.30;9.57;;;1.60;99.90;;;;;;5117997;27;20727;-76
2023/03/12 07:03:56;;;;;;;17.47;8.70;;;1.60;99.90;;;;;;5138726;27;20035;-76
2023/03/12 07:06:23;;;;;;;14.23;9.37;;;1.60;99.90;;;;;;5119057;27;20035;-75
2023/03/12 07:08:49;;;;;;;15.47;9.63;;;1.60;99.90;;;;;;5119116;27;20639;-76
2023/03/12 07:11:16;;;;;;;9.63;8.47;;;1.60;99.90;;;;;;5120037;27;20043;-75
2023/03/12 07:13:42;;;;;;;15.37;9.63;;;1.60;99.90;;;;;;5117791;27;20032;-76
2023/03/12 07:16:08;;;;;;;12.33;9.43;;;1.70;99.90;;;;;;5120296;27;20051;-76
2023/03/12 07:18:34;;;;;;;11.87;9.10;;;1.70;99.90;;;;;;5117893;27;20076;-76
2023/03/12 07:21:00;;;;;;;12.67;9.90;;;1.70;99.90;;;;;;5120094;27;20035;-77
2023/03/12 07:23:26;;;;;;;12.50;9.83;;;1.70;99.90;;;;;;5138814;27;20103;-75
2023/03/12 07:25:52;;;;;;;13.93;10.47;;;1.70;99.90;;;;;;5139167;27;20038;-75
2023/03/12 07:28:18;;;;;;;15.43;11.07;;;1.70;99.90;;;;;;5138867;27;20050;-75
2023/03/12 07:30:49;;;;;;;13.40;10.60;;;1.60;99.90;;;;;;5117724;27;20502;-75
2023/03/12 07:33:16;;;;;;;14.20;10.30;;;1.60;99.90;;;;;;5098135;28;20062;-75
2023/03/12 07:35:42;;;;;;;12.83;11.17;;;1.50;99.90;;;;;;5115971;27;20042;-74
2023/03/12 07:38:08;;;;;;;13.97;10.77;;;1.50;99.90;;;;;;5120188;27;20058;-75
2023/03/12 07:40:35;;;;;;;14.97;11.30;;;1.50;99.90;;;;;;5118880;27;20051;-75
2023/03/12 07:43:02;;;;;;;13.97;12.33;;;1.50;99.90;;;;;;5137235;27;20054;-75
2023/03/12 07:45:28;;;;;;;16.33;10.87;;;1.50;99.90;;;;;;5119342;27;20047;-76
2023/03/12 07:47:53;;;;;;;13.53;11.60;;;1.50;99.90;;;;;;5136385;27;20384;-75
2023/03/12 07:50:19;;;;;;;17.33;12.37;;;1.50;99.90;;;;;;5138022;27;20064;-73
2023/03/12 07:52:45;;;;;;;14.47;11.93;;;1.50;99.90;;;;;;5100500;27;20045;-75
2023/03/12 07:55:11;;;;;;;14.70;12.07;;;1.50;99.90;;;;;;5119554;27;20062;-75
2023/03/12 07:57:37;;;;;;;15.70;12.40;;;1.50;99.90;;;;;;5118468;27;20067;-74
2023/03/12 08:00:07;;;;;;;15.43;12.83;;;1.50;99.90;;;;;;5137140;27;20043;-76
2023/03/12 08:02:33;;;;;;;16.40;12.57;;;1.50;99.90;;;;;;5137757;27;20062;-76
2023/03/12 08:04:59;;;;;;;14.70;12.60;;;1.50;99.90;;;;;;5116673;27;20043;-75
2023/03/12 08:07:30;;;;;;;16.63;12.97;;;1.50;99.90;;;;;;5119510;27;20150;-76
2023/03/12 08:09:57;;;;;;;18.02;12.77;;;1.50;99.90;;;;;;5135748;27;20276;-74
2023/03/12 08:12:23;;;;;;;17.87;12.97;;;1.50;99.90;;;;;;5102323;27;20041;-76
2023/03/12 08:14:48;;;;;;;16.40;12.50;;;1.50;99.90;;;;;;5117961;27;20103;-72
2023/03/12 08:17:14;;;;;;;14.23;12.73;;;1.50;99.90;;;;;;5118092;27;20275;-77
2023/03/12 08:19:41;;;;;;;16.87;13.30;;;1.50;99.90;;;;;;5118977;27;20102;-76
2023/03/12 08:22:07;;;;;;;15.37;12.87;;;1.50;99.90;;;;;;5099436;27;20126;-76
2023/03/12 08:24:34;;;;;;;17.10;12.43;;;1.50;99.90;;;;;;5137370;27;20053;-77
2023/03/12 08:27:00;;;;;;;13.53;12.17;;;1.60;99.90;;;;;;5116633;27;20047;-76
2023/03/12 08:29:26;;;;;;;17.43;12.43;;;1.60;99.90;;;;;;5101747;27;20075;-76
2023/03/12 08:31:51;;;;;;;15.27;12.97;;;1.60;99.90;;;;;;5135594;27;20066;-76
2023/03/12 08:34:17;;;;;;;20.20;13.80;;;1.70;99.90;;;;;;5136361;27;20047;-77
2023/03/12 08:36:43;;;;;;;18.70;14.03;;;1.70;99.90;;;;;;5136597;27;20077;-76
2023/03/12 08:39:09;;;;;;;15.70;12.13;;;1.70;99.90;;;;;;5099645;27;20049;-77
2023/03/12 08:41:34;;;;;;;14.40;10.63;;;1.70;99.90;;;;;;5117858;27;20035;-77
2023/03/12 08:44:01;;;;;;;14.43;10.90;;;1.70;99.90;;;;;;5134251;27;20065;-76
2023/03/12 08:46:27;;;;;;;12.70;11.40;;;1.80;99.90;;;;;;5101130;27;20557;-76
2023/03/12 08:48:52;;;;;;;15.70;11.63;;;1.80;99.90;;;;;;5116314;27;20078;-76
2023/03/12 08:51:18;;;;;;;13.90;12.13;;;1.80;99.90;;;;;;5117162;27;20529;-76
2023/03/12 08:53:44;;;;;;;13.73;11.53;;;1.70;99.90;;;;;;5100745;27;20142;-76
2023/03/12 08:56:09;;;;;;;15.40;11.80;;;1.80;99.90;;;;;;5115752;27;20047;-77
2023/03/12 08:58:35;;;;;;;12.93;10.80;;;1.80;99.90;;;;;;5135662;27;20046;-76
2023/03/12 09:01:01;;;;;;;12.93;11.63;;;1.80;99.90;;;;;;5099101;27;20104;-76
2023/03/12 09:03:27;;;;;;;14.47;11.43;;;1.90;99.90;;;;;;5136515;27;20051;-76
2023/03/12 09:06:15;;;;;;;14.23;12.03;;;1.90;99.90;;;;;;5115456;27;20054;-76
2023/03/12 09:08:42;;;;;;;16.20;13.17;;;2.00;99.90;;;;;;5117194;27;20043;-76
2023/03/12 09:11:09;;;;;;;15.93;13.17;;;2.10;99.90;;;;;;5135922;27;20517;-77
2023/03/12 09:13:35;;;;;;;17.50;13.60;;;2.00;99.90;;;;;;5115804;27;20141;-76
2023/03/12 09:16:02;;;;;;;17.07;13.90;;;2.00;99.90;;;;;;5136559;27;20449;-77
2023/03/12 09:18:29;;;;;;;15.33;13.67;;;2.00;99.90;;;;;;5133966;27;20068;-78
2023/03/12 09:20:56;;;;;;;16.83;12.97;;;1.90;99.90;;;;;;5141498;27;20043;-75
2023/03/12 09:23:22;;;;;;;15.00;13.50;;;1.90;99.90;;;;;;5141216;27;20069;-76
2023/03/12 09:25:48;;;;;;;15.20;13.03;;;1.90;99.90;;;;;;5098999;27;20495;-76
2023/03/12 09:28:14;;;;;;;22.60;13.87;;;1.90;99.90;;;;;;5117687;27;20069;-75
2023/03/12 09:30:40;;;;;;;15.40;13.77;;;1.80;99.90;;;;;;5115527;27;20524;-76
2023/03/12 09:33:06;;;;;;;18.70;14.50;;;1.80;99.90;;;;;;5097801;28;20050;-76
2023/03/12 09:35:31;;;;;;;18.80;14.83;;;1.70;99.90;;;;;;5095862;28;20036;-75
2023/03/12 09:37:57;;;;;;;21.90;15.60;;;1.80;99.90;;;;;;5137158;27;20104;-75
2023/03/12 09:40:28;;;;;;;17.27;14.53;;;1.80;99.90;;;;;;5100996;27;20049;-75
2023/03/12 09:43:04;;;;;;;19.03;15.43;;;1.80;99.90;;;;;;5118256;28;20051;-75
2023/03/12 09:45:37;;;;;;;18.73;16.67;;;1.90;99.90;;;;;;5117443;28;20062;-76
2023/03/12 09:48:03;;;;;;;;;;;1.90;99.90;;;;;;5116271;28;20055;-76
2023/03/12 09:50:32;;;;;;;22.60;19.00;;;1.90;99.90;;;;;;5117747;28;20324;-76
2023/03/12 09:53:27;;;;;;;21.37;19.07;;;1.90;99.90;;;;;;5134437;28;20047;-76
2023/03/12 09:55:55;;;;;;;22.13;19.77;;;2.00;99.90;;;;;;5110457;28;20047;-76
2023/03/12 09:58:27;;;;;;;25.50;21.50;;;2.00;99.90;;;;;;5135966;28;20486;-76
2023/03/12 10:01:06;;;;;;;27.20;22.90;;;2.00;99.90;;;;;;5115915;28;20039;-75
2023/03/12 10:04:01;;;;;;;30.07;24.17;;;2.00;99.90;;;;;;5117807;28;20054;-75
2023/03/12 10:06:44;;;;;;;31.27;24.33;;;1.90;99.90;;;;;;5097334;27;20767;-80
2023/03/12 10:09:16;;;;;;;40.23;27.67;;;1.90;99.90;;;;;;5115421;27;20072;-81
2023/03/12 10:11:56;;;;;;;35.92;26.17;;;1.90;99.90;;;;;;5097998;28;20048;-81
2023/03/12 10:15:01;;;;;;;42.30;29.43;;;1.90;99.90;;;;;;5112168;27;20055;-80
2023/03/12 10:17:42;;;;;;;32.17;26.40;;;1.90;99.90;;;;;;5133348;27;20490;-81
2023/03/12 10:20:40;;;;;;;31.67;24.27;;;1.90;99.90;;;;;;5121292;27;20043;-80
2023/03/12 10:23:45;;;;;;;33.47;26.10;;;1.90;99.90;;;;;;5119814;27;20048;-81
2023/03/12 10:26:24;;;;;;;36.53;25.90;;;1.90;99.90;;;;;;5139108;27;20046;-81
2023/03/12 10:29:02;;;;;;;42.03;28.13;;;1.90;99.90;;;;;;5122252;27;20043;-81
2023/03/12 10:31:33;;;;;;;37.40;25.40;;;1.90;99.90;;;;;;5119124;27;20058;-81
2023/03/12 10:34:01;;;;;;;40.97;27.53;;;1.90;99.90;;;;;;5139080;27;20569;-81
2023/03/12 10:36:38;;;;;;;40.77;28.03;;;1.90;99.90;;;;;;5139028;27;20054;-80
2023/03/12 10:39:16;;;;;;;34.07;25.23;;;2.00;99.90;;;;;;5115441;27;20513;-80
2023/03/12 10:41:45;;;;;;;29.33;24.30;;;2.00;99.90;;;;;;5120798;27;20121;-80
2023/03/12 10:44:20;;;;;;;34.63;25.33;;;2.00;99.90;;;;;;5101693;27;20043;-79
2023/03/12 10:47:23;;;;;;;52.87;31.77;;;2.00;99.90;;;;;;5120135;27;20043;-82
2023/03/12 10:49:50;;;;;;;39.73;27.60;;;2.10;99.90;;;;;;5139418;27;20051;-80
2023/03/12 10:52:18;;;;;;;40.47;27.10;;;2.10;99.90;;;;;;5102245;27;20039;-80
2023/03/12 10:54:46;;;;;;;40.57;29.23;;;2.10;99.90;;;;;;5139438;27;20049;-81
2023/03/12 10:57:16;;;;;;;35.63;26.33;;;2.20;99.90;;;;;;5118786;27;20050;-81
2023/03/12 10:59:45;;;;;;;32.87;24.83;;;2.20;99.90;;;;;;5120581;27;20078;-81
2023/03/12 11:02:37;;;;;;;31.77;24.60;;;2.30;99.90;;;;;;5138401;27;20057;-80
2023/03/12 11:05:22;;;;;;;32.92;25.70;;;2.30;99.90;;;;;;5137088;27;20046;-81
2023/03/12 11:07:49;;;;;;;30.07;23.20;;;2.40;99.90;;;;;;5138997;27;20077;-81
2023/03/12 11:10:22;;;;;;;29.27;23.73;;;2.40;99.90;;;;;;5120301;27;20035;-81
2023/03/12 11:13:33;;;;;;;28.07;23.30;;;2.40;99.90;;;;;;5140258;27;20039;-79
2023/03/12 11:16:01;;;;;;;28.00;21.93;;;2.50;99.90;;;;;;5118772;27;20047;-80
2023/03/12 11:18:28;;;;;;;29.73;22.50;;;2.50;99.90;;;;;;5117583;27;20201;-80
2023/03/12 11:21:07;;;;;;;29.40;22.67;;;2.60;99.90;;;;;;5120244;27;20031;-80
2023/03/12 11:23:34;;;;;;;28.17;22.20;;;2.60;99.90;;;;;;5119714;27;20047;-80
2023/03/12 11:26:13;;;;;;;29.73;21.93;;;2.60;99.90;;;;;;5118472;27;20055;-80
2023/03/12 11:28:42;;;;;;;29.57;22.93;;;2.60;99.90;;;;;;5120240;27;20054;-81
2023/03/12 11:31:18;;;;;;;26.73;22.37;;;2.70;99.90;;;;;;5118158;27;20049;-81
2023/03/12 11:33:44;;;;;;;32.53;23.37;;;2.70;99.90;;;;;;5110122;27;20064;-81
2023/03/12 11:36:32;;;;;;;27.97;22.13;;;2.70;99.90;;;;;;5137460;27;20039;-81
2023/03/12 11:39:14;;;;;;;33.37;23.63;;;2.80;99.90;;;;;;5136498;27;20069;-81
2023/03/12 11:41:45;;;;;;;29.65;23.40;;;2.80;99.90;;;;;;5134055;27;20058;-81
2023/03/12 11:44:20;;;;;;;29.08;22.90;;;2.80;99.90;;;;;;5136334;27;20035;-81
2023/03/12 11:46:52;;;;;;;29.57;22.50;;;2.90;99.90;;;;;;5119027;27;20470;-81
2023/03/12 11:49:39;;;;;;;28.23;22.92;;;2.90;99.90;;;;;;5137709;27;20035;-80
2023/03/12 11:52:08;;;;;;;28.80;22.30;;;3.00;99.90;;;;;;5135943;27;20047;-81
2023/03/12 11:55:16;;;;;;;31.30;22.60;;;3.00;99.90;;;;;;5119522;27;20078;-80
2023/03/12 11:57:57;;;;;;;33.90;24.03;;;3.20;99.90;;;;;;5130738;27;20049;-81
2023/03/12 12:00:47;;;;;;;31.53;22.57;;;3.30;99.90;;;;;;5120491;27;20032;-81
2023/03/12 12:03:29;;;;;;;27.40;20.73;;;3.30;99.90;;;;;;5121236;27;20059;-81
2023/03/12 12:06:17;;;;;;;30.95;22.35;;;3.40;99.90;;;;;;5136586;27;20050;-81
2023/03/12 12:09:14;;;;;;;29.10;20.93;;;3.50;99.90;;;;;;5117916;27;20050;-81
2023/03/12 12:12:08;;;;;;;25.63;20.03;;;3.60;99.90;;;;;;5083951;27;20063;-80
2023/03/12 12:14:55;;;;;;;27.03;20.33;;;3.60;99.90;;;;;;5117802;27;20495;-81
2023/03/12 12:17:39;;;;;;;26.53;19.07;;;3.70;99.90;;;;;;5119654;27;20069;-81
2023/03/12 12:20:27;;;;;;;24.80;18.47;;;3.70;99.90;;;;;;5102288;27;20046;-80
2023/03/12 12:23:11;;;;;;;25.87;18.33;;;3.70;99.90;;;;;;5116735;27;20080;-80
2023/03/12 12:26:07;;;;;;;27.83;18.50;;;3.70;99.90;;;;;;5100781;27;20070;-81
2023/03/12 12:28:47;;;;;;;25.70;18.63;;;3.80;99.90;;;;;;5117994;27;20050;-81
2023/03/12 12:31:45;;;;;;;25.03;16.93;;;3.90;99.90;;;;;;5133966;27;20129;-82
2023/03/12 12:34:29;;;;;;;26.17;18.47;;;3.90;99.90;;;;;;5136836;27;20047;-81
2023/03/12 12:37:27;;;;;;;29.60;18.43;;;4.00;99.90;;;;;;5118600;27;20700;-80
2023/03/12 12:40:26;;;;;;;26.53;18.20;;;4.10;99.90;;;;;;5099792;27;20559;-81
2023/03/12 12:43:20;;;;;;;30.07;19.37;;;4.10;99.90;;;;;;5122076;27;20479;-81
2023/03/12 12:45:48;;;;;;;30.57;19.57;;;4.20;99.90;;;;;;5138286;27;20050;-81
2023/03/12 12:48:22;;;;;;;28.20;19.33;;;4.30;99.90;;;;;;5119503;27;20047;-81
2023/03/12 12:50:50;;;;;;;30.90;18.77;;;4.40;99.90;;;;;;5102022;27;20053;-81
2023/03/12 12:53:29;;;;;;;35.87;19.53;;;4.40;99.90;;;;;;5117371;27;20051;-81
2023/03/12 12:56:03;;;;;;;32.90;19.70;;;4.40;99.90;;;;;;5117011;27;20582;-81
2023/03/12 12:58:56;;;;;;;27.83;19.10;;;4.50;99.90;;;;;;5101288;27;20130;-81